sensor_id;sensor_type;location;lat;lon;timestamp;temperature;humidity
15257;DHT22;7731;50.720;6.912;2023-04-15T00:01:25;6.20;99.90
15257;DHT22;7731;50.720;6.912;2023-04-15T00:03:58;6.10;99.90
15257;DHT22;7731;50.720;6.912;2023-04-15T00:06:29;6.10;99.90
15257;DHT22;7731;50.720;6.912;2023-04-15T00:08:59;6.00;99.90
15257;DHT22;7731;50.720;6.912;2023-04-15T00:11:32;5.90;99.90
15257;DHT22;7731;50.720;6.912;2023-04-15T00:14:02;5.80;99.90
15257;DHT22;7731;50.720;6.912;2023-04-15T00:16:33;5.80;99.90
15257;DHT22;7731;50.720;6.912;2023-04-15T00:19:03;5.80;99.90
15257;DHT22;7731;50.720;6.912;2023-04-15T00:21:34;5.70;99.90
15257;DHT22;7731;50.720;6.912;2023-04-15T00:24:04;5.60;99.90
15257;DHT22;7731;50.720;6.912;2023-04-15T00:26:37;5.40;99.90
15257;DHT22;7731;50.720;6.912;2023-04-15T00:29:09;5.30;99.90
15257;DHT22;7731;50.720;6.912;2023-04-15T00:31:42;5.20;99.90
15257;DHT22;7731;50.720;6.912;2023-04-15T00:34:13;5.20;99.90
15257;DHT22;7731;50.720;6.912;2023-04-15T00:36:43;5.20;99.90
15257;DHT22;7731;50.720;6.912;2023-04-15T00:39:13;5.20;99.90
15257;DHT22;7731;50.720;6.912;2023-04-15T00:41:47;5.20;99.90
15257;DHT22;7731;50.720;6.912;2023-04-15T00:44:18;5.30;99.90
15257;DHT22;7731;50.720;6.912;2023-04-15T00:46:50;5.30;99.90
15257;DHT22;7731;50.720;6.912;2023-04-15T00:49:20;5.40;99.90
15257;DHT22;7731;50.720;6.912;2023-04-15T00:51:51;5.40;99.90
15257;DHT22;7731;50.720;6.912;2023-04-15T00:54:21;5.30;99.90
15257;DHT22;7731;50.720;6.912;2023-04-15T00:56:57;5.30;99.90
15257;DHT22;7731;50.720;6.912;2023-04-15T00:59:28;5.40;99.90
15257;DHT22;7731;50.720;6.912;2023-04-15T01:02:01;5.70;99.90
15257;DHT22;7731;50.720;6.912;2023-04-15T01:04:33;5.80;99.90
15257;DHT22;7731;50.720;6.912;2023-04-15T01:07:06;5.60;99.90
15257;DHT22;7731;50.720;6.912;2023-04-15T01:09:37;5.40;99.90
15257;DHT22;7731;50.720;6.912;2023-04-15T01:12:11;5.50;99.90
15257;DHT22;7731;50.720;6.912;2023-04-15T01:14:44;5.50;99.90
15257;DHT22;7731;50.720;6.912;2023-04-15T01:17:14;5.40;99.90
15257;DHT22;7731;50.720;6.912;2023-04-15T01:19:45;5.40;99.90
15257;DHT22;7731;50.720;6.912;2023-04-15T01:22:15;5.20;99.90
15257;DHT22;7731;50.720;6.912;2023-04-15T01:24:50;5.10;99.90
15257;DHT22;7731;50.720;6.912;2023-04-15T01:27:29;5.10;99.90
15257;DHT22;7731;50.720;6.912;2023-04-15T01:29:59;4.90;99.90
15257;DHT22;7731;50.720;6.912;2023-04-15T01:32:33;4.90;99.90
15257;DHT22;7731;50.720;6.912;2023-04-15T01:35:04;4.90;99.90
15257;DHT22;7731;50.720;6.912;2023-04-15T01:37:35;4.90;99.90
15257;DHT22;7731;50.720;6.912;2023-04-15T01:40:08;4.90;99.90
15257;DHT22;7731;50.720;6.912;2023-04-15T01:42:42;4.90;99.90
15257;DHT22;7731;50.720;6.912;2023-04-15T01:45:12;5.00;99.90
15257;DHT22;7731;50.720;6.912;2023-04-15T01:47:47;4.90;99.90
15257;DHT22;7731;50.720;6.912;2023-04-15T01:50:18;4.90;99.90
15257;DHT22;7731;50.720;6.912;2023-04-15T03:51:52;3.50;99.90
15257;DHT22;7731;50.720;6.912;2023-04-15T04:05:27;3.90;99.90
15257;DHT22;7731;50.720;6.912;2023-04-15T04:29:36;3.70;99.90
15257;DHT22;7731;50.720;6.912;2023-04-15T11:20:28;16.90;97.50
15257;DHT22;7731;50.720;6.912;2023-04-15T11:23:00;16.80;24.50
15257;DHT22;7731;50.720;6.912;2023-04-15T11:25:41;16.60;99.90
15257;DHT22;7731;50.720;6.912;2023-04-15T11:28:12;16.30;99.90
15257;DHT22;7731;50.720;6.912;2023-04-15T11:30:43;16.20;1.00
15257;DHT22;7731;50.720;6.912;2023-04-15T12:37:46;15.80;99.90
15257;DHT22;7731;50.720;6.912;2023-04-15T12:45:44;15.80;99.90
15257;DHT22;7731;50.720;6.912;2023-04-15T12:48:15;15.50;1.00
15257;DHT22;7731;50.720;6.912;2023-04-15T12:50:46;15.20;99.90
15257;DHT22;7731;50.720;6.912;2023-04-15T12:53:20;15.10;1.00
15257;DHT22;7731;50.720;6.912;2023-04-15T12:55:50;14.60;1.00
15257;DHT22;7731;50.720;6.912;2023-04-15T12:58:20;14.30;1.00
15257;DHT22;7731;50.720;6.912;2023-04-15T13:00:51;13.80;1.00
15257;DHT22;7731;50.720;6.912;2023-04-15T13:03:21;13.60;1.00
15257;DHT22;7731;50.720;6.912;2023-04-15T13:05:53;13.60;1.00
15257;DHT22;7731;50.720;6.912;2023-04-15T13:08:26;13.30;1.00
15257;DHT22;7731;50.720;6.912;2023-04-15T13:10:57;13.20;1.00
15257;DHT22;7731;50.720;6.912;2023-04-15T13:13:27;13.10;1.00
15257;DHT22;7731;50.720;6.912;2023-04-15T13:15:58;13.10;1.00
15257;DHT22;7731;50.720;6.912;2023-04-15T13:18:28;13.00;1.00
15257;DHT22;7731;50.720;6.912;2023-04-15T13:21:01;13.00;1.00
15257;DHT22;7731;50.720;6.912;2023-04-15T13:23:36;13.00;1.00
15257;DHT22;7731;50.720;6.912;2023-04-15T13:26:06;12.90;2.20
15257;DHT22;7731;50.720;6.912;2023-04-15T13:28:37;12.70;16.20
15257;DHT22;7731;50.720;6.912;2023-04-15T13:31:07;12.60;25.50
15257;DHT22;7731;50.720;6.912;2023-04-15T13:33:37;12.70;30.40
15257;DHT22;7731;50.720;6.912;2023-04-15T13:36:08;12.60;31.50
15257;DHT22;7731;50.720;6.912;2023-04-15T13:38:44;12.80;27.80
15257;DHT22;7731;50.720;6.912;2023-04-15T13:41:17;12.90;27.80
15257;DHT22;7731;50.720;6.912;2023-04-15T13:43:48;12.80;30.80
15257;DHT22;7731;50.720;6.912;2023-04-15T13:46:21;12.80;27.60
15257;DHT22;7731;50.720;6.912;2023-04-15T13:48:52;12.80;27.10
15257;DHT22;7731;50.720;6.912;2023-04-15T13:51:22;12.60;30.30
15257;DHT22;7731;50.720;6.912;2023-04-15T13:53:55;12.80;29.70
15257;DHT22;7731;50.720;6.912;2023-04-15T13:56:26;12.90;29.50
15257;DHT22;7731;50.720;6.912;2023-04-15T13:58:59;13.00;25.40
15257;DHT22;7731;50.720;6.912;2023-04-15T14:01:41;13.00;31.60
15257;DHT22;7731;50.720;6.912;2023-04-15T14:04:15;12.80;28.60
15257;DHT22;7731;50.720;6.912;2023-04-15T14:06:46;12.70;36.90
15257;DHT22;7731;50.720;6.912;2023-04-15T14:09:19;12.60;39.40
15257;DHT22;7731;50.720;6.912;2023-04-15T14:11:53;12.60;41.70
15257;DHT22;7731;50.720;6.912;2023-04-15T14:14:25;12.70;29.40
15257;DHT22;7731;50.720;6.912;2023-04-15T14:16:55;12.70;35.30
15257;DHT22;7731;50.720;6.912;2023-04-15T14:19:26;12.80;36.80
15257;DHT22;7731;50.720;6.912;2023-04-15T14:21:58;12.50;41.90
15257;DHT22;7731;50.720;6.912;2023-04-15T14:24:32;12.50;48.30
15257;DHT22;7731;50.720;6.912;2023-04-15T14:27:02;12.50;47.00
15257;DHT22;7731;50.720;6.912;2023-04-15T14:29:34;12.50;46.40
15257;DHT22;7731;50.720;6.912;2023-04-15T14:32:09;12.50;52.10
15257;DHT22;7731;50.720;6.912;2023-04-15T14:34:43;12.40;64.20
15257;DHT22;7731;50.720;6.912;2023-04-15T14:37:13;12.30;64.60
15257;DHT22;7731;50.720;6.912;2023-04-15T14:39:46;12.30;79.30
15257;DHT22;7731;50.720;6.912;2023-04-15T14:42:16;12.30;59.10
15257;DHT22;7731;50.720;6.912;2023-04-15T14:44:47;12.20;67.40
15257;DHT22;7731;50.720;6.912;2023-04-15T14:47:17;12.10;71.40
15257;DHT22;7731;50.720;6.912;2023-04-15T14:49:48;12.10;73.60
15257;DHT22;7731;50.720;6.912;2023-04-15T14:52:20;12.10;72.70
15257;DHT22;7731;50.720;6.912;2023-04-15T14:54:53;12.10;79.40
15257;DHT22;7731;50.720;6.912;2023-04-15T14:57:23;12.20;77.50
15257;DHT22;7731;50.720;6.912;2023-04-15T14:59:53;12.20;62.50
15257;DHT22;7731;50.720;6.912;2023-04-15T15:02:24;12.30;60.60
15257;DHT22;7731;50.720;6.912;2023-04-15T15:05:06;12.40;63.00
15257;DHT22;7731;50.720;6.912;2023-04-15T15:07:39;12.50;53.80
15257;DHT22;7731;50.720;6.912;2023-04-15T15:10:12;12.40;59.10
15257;DHT22;7731;50.720;6.912;2023-04-15T15:12:58;12.50;60.30
15257;DHT22;7731;50.720;6.912;2023-04-15T15:15:29;12.50;53.30
15257;DHT22;7731;50.720;6.912;2023-04-15T15:18:00;12.50;47.90
15257;DHT22;7731;50.720;6.912;2023-04-15T15:20:30;12.40;63.20
15257;DHT22;7731;50.720;6.912;2023-04-15T15:23:02;12.40;63.60
15257;DHT22;7731;50.720;6.912;2023-04-15T15:25:35;12.20;76.40
15257;DHT22;7731;50.720;6.912;2023-04-15T15:28:05;12.20;82.10
15257;DHT22;7731;50.720;6.912;2023-04-15T15:30:36;12.20;80.30
15257;DHT22;7731;50.720;6.912;2023-04-15T15:33:07;12.10;86.50
15257;DHT22;7731;50.720;6.912;2023-04-15T15:35:37;12.10;94.20
15257;DHT22;7731;50.720;6.912;2023-04-15T15:38:15;12.00;99.50
15257;DHT22;7731;50.720;6.912;2023-04-15T15:40:50;12.20;97.00
15257;DHT22;7731;50.720;6.912;2023-04-15T15:43:21;12.20;90.00
15257;DHT22;7731;50.720;6.912;2023-04-15T15:45:54;11.90;99.90
15257;DHT22;7731;50.720;6.912;2023-04-15T15:48:24;11.90;99.90
15257;DHT22;7731;50.720;6.912;2023-04-15T15:50:55;11.90;99.90
15257;DHT22;7731;50.720;6.912;2023-04-15T15:53:25;11.80;99.90
15257;DHT22;7731;50.720;6.912;2023-04-15T15:55:58;11.70;99.90
15257;DHT22;7731;50.720;6.912;2023-04-15T15:58:29;11.70;99.90
15257;DHT22;7731;50.720;6.912;2023-04-15T16:01:00;11.60;99.90
15257;DHT22;7731;50.720;6.912;2023-04-15T16:03:30;11.60;99.90
15257;DHT22;7731;50.720;6.912;2023-04-15T16:06:02;11.50;99.90
15257;DHT22;7731;50.720;6.912;2023-04-15T16:08:32;11.60;99.90
15257;DHT22;7731;50.720;6.912;2023-04-15T16:11:05;11.50;99.90
15257;DHT22;7731;50.720;6.912;2023-04-15T16:13:38;11.50;99.90
15257;DHT22;7731;50.720;6.912;2023-04-15T16:16:08;11.40;99.90
15257;DHT22;7731;50.720;6.912;2023-04-15T16:18:39;11.40;99.90
15257;DHT22;7731;50.720;6.912;2023-04-15T16:21:11;11.50;99.90
15257;DHT22;7731;50.720;6.912;2023-04-15T16:23:42;11.60;99.90
15257;DHT22;7731;50.720;6.912;2023-04-15T16:26:15;11.60;99.90
15257;DHT22;7731;50.720;6.912;2023-04-15T16:28:48;11.50;99.90
15257;DHT22;7731;50.720;6.912;2023-04-15T16:31:19;11.40;99.90
15257;DHT22;7731;50.720;6.912;2023-04-15T16:33:50;11.30;99.90
15257;DHT22;7731;50.720;6.912;2023-04-15T16:36:20;11.30;99.90
15257;DHT22;7731;50.720;6.912;2023-04-15T16:38:50;11.30;99.90
15257;DHT22;7731;50.720;6.912;2023-04-15T16:41:23;11.20;99.90
15257;DHT22;7731;50.720;6.912;2023-04-15T17:59:51;10.30;99.90
15257;DHT22;7731;50.720;6.912;2023-04-15T18:02:21;10.40;99.90
15257;DHT22;7731;50.720;6.912;2023-04-15T18:04:52;10.40;99.90
15257;DHT22;7731;50.720;6.912;2023-04-15T18:07:22;10.20;99.90
15257;DHT22;7731;50.720;6.912;2023-04-15T18:09:53;10.20;99.90
15257;DHT22;7731;50.720;6.912;2023-04-15T18:12:24;10.20;99.90
15257;DHT22;7731;50.720;6.912;2023-04-15T18:14:56;10.20;99.90
15257;DHT22;7731;50.720;6.912;2023-04-15T18:17:30;10.20;99.90
15257;DHT22;7731;50.720;6.912;2023-04-15T18:20:00;10.20;99.90
15257;DHT22;7731;50.720;6.912;2023-04-15T18:22:30;10.30;99.90
15257;DHT22;7731;50.720;6.912;2023-04-15T18:25:01;10.20;99.90
15257;DHT22;7731;50.720;6.912;2023-04-15T18:27:34;10.20;99.90
15257;DHT22;7731;50.720;6.912;2023-04-15T18:30:09;10.30;99.90
15257;DHT22;7731;50.720;6.912;2023-04-15T18:32:42;10.30;99.90
15257;DHT22;7731;50.720;6.912;2023-04-15T18:35:15;10.10;99.90
15257;DHT22;7731;50.720;6.912;2023-04-15T18:37:47;10.10;99.90
15257;DHT22;7731;50.720;6.912;2023-04-15T18:40:17;10.10;99.90
15257;DHT22;7731;50.720;6.912;2023-04-15T18:42:47;10.10;99.90
15257;DHT22;7731;50.720;6.912;2023-04-15T18:45:21;10.10;99.90
15257;DHT22;7731;50.720;6.912;2023-04-15T18:47:51;10.10;99.90
15257;DHT22;7731;50.720;6.912;2023-04-15T18:50:21;10.10;99.90
15257;DHT22;7731;50.720;6.912;2023-04-15T18:52:54;10.00;99.90
15257;DHT22;7731;50.720;6.912;2023-04-15T18:55:24;10.10;99.90
15257;DHT22;7731;50.720;6.912;2023-04-15T21:49:02;8.60;99.90
15257;DHT22;7731;50.720;6.912;2023-04-15T23:34:24;8.40;99.90
